Time;durP1;ratioP1;P1;durP2;ratioP2;P2;SDS_P1;SDS_P2;PMS_P1;PMS_P2;Temp;Humidity;BMP_temperature;BMP_pressure;BME280_temperature;BME280_humidity;BME280_pressure;Samples;Min_cycle;Max_cycle;Signal;HPM_P1;HPM_P2
2022/01/17 00:02:09;;;;;;;30.30;16.47;;;;;;;2.77;100.00;101178.91;4982063;28;20209;-75
2022/01/17 00:04:35;;;;;;;31.97;17.47;;;;;;;2.77;100.00;101176.34;4982021;28;20228;-74
2022/01/17 00:07:01;;;;;;;30.93;17.27;;;;;;;2.77;100.00;101169.47;4986050;28;20213;-76
2022/01/17 00:09:28;;;;;;;29.40;17.00;;;;;;;2.76;100.00;101166.88;4983996;28;20260;-75
2022/01/17 00:11:56;;;;;;;31.97;17.83;;;;;;;2.78;100.00;101160.03;4984019;28;20204;-76
2022/01/17 00:14:29;;;;;;;27.53;16.47;;;;;;;2.80;100.00;101156.66;4982690;28;20233;-75
2022/01/17 00:17:08;;;;;;;28.83;16.57;;;;;;;2.81;100.00;101163.53;4984609;28;20223;-76
2022/01/17 00:19:41;;;;;;;30.80;16.73;;;;;;;2.83;100.00;101168.69;4981943;28;21386;-76
2022/01/17 00:22:08;;;;;;;30.77;17.17;;;;;;;2.84;100.00;101171.28;4983107;28;20858;-76
2022/01/17 00:24:34;;;;;;;30.57;16.93;;;;;;;2.83;100.00;101167.00;4985727;28;21039;-76
2022/01/17 00:27:01;;;;;;;31.10;17.30;;;;;;;2.87;100.00;101160.19;4982745;28;20202;-76
2022/01/17 00:29:29;;;;;;;27.33;16.33;;;;;;;2.89;100.00;101147.34;4985339;28;20198;-76
2022/01/17 00:31:56;;;;;;;30.90;15.90;;;;;;;2.90;100.00;101147.31;4984047;28;20656;-74
2022/01/17 00:34:22;;;;;;;24.83;14.87;;;;;;;2.94;100.00;101163.72;4982256;28;20339;-75
2022/01/17 00:36:49;;;;;;;31.07;16.17;;;;;;;2.94;100.00;101154.28;4981331;28;20205;-75
2022/01/17 00:39:16;;;;;;;30.57;16.27;;;;;;;2.94;100.00;101159.44;4981721;28;20213;-76
2022/01/17 00:41:42;;;;;;;30.03;16.03;;;;;;;2.94;100.00;101154.28;4981862;28;20220;-74
2022/01/17 00:44:08;;;;;;;26.37;16.07;;;;;;;2.93;100.00;101149.09;4984305;28;20232;-76
2022/01/17 00:46:37;;;;;;;25.73;15.67;;;;;;;2.93;100.00;101161.97;4982368;28;20236;-76
2022/01/17 00:49:04;;;;;;;30.93;17.07;;;;;;;2.93;100.00;101157.69;4979983;28;20197;-75
2022/01/17 00:51:30;;;;;;;30.33;16.00;;;;;;;2.92;100.00;101157.66;4982581;28;20208;-75
2022/01/17 00:53:57;;;;;;;30.03;16.13;;;;;;;2.91;100.00;101156.81;4979991;28;20225;-75
2022/01/17 00:56:24;;;;;;;25.47;16.10;;;;;;;2.92;100.00;101176.56;4985577;28;20201;-75
2022/01/17 00:58:51;;;;;;;27.10;15.23;;;;;;;2.94;100.00;101177.47;4981935;28;20212;-76
2022/01/17 01:01:18;;;;;;;27.97;16.93;;;;;;;2.95;100.00;101168.00;4985664;28;20213;-75
2022/01/17 01:03:45;;;;;;;30.43;16.27;;;;;;;2.93;100.00;101169.69;4980828;28;20241;-76
2022/01/17 01:06:12;;;;;;;29.57;16.37;;;;;;;2.92;100.00;101174.00;4982558;28;20229;-76
2022/01/17 01:08:39;;;;;;;32.00;16.70;;;;;;;2.90;100.00;101157.63;4981619;28;20212;-76
2022/01/17 01:11:06;;;;;;;29.77;16.00;;;;;;;2.89;100.00;101137.03;4983733;28;20212;-74
2022/01/17 01:13:32;;;;;;;29.67;16.30;;;;;;;2.84;100.00;101134.38;4981602;28;20234;-76
2022/01/17 01:16:21;;;;;;;27.43;15.60;;;;;;;2.82;100.00;101136.94;4965695;28;20320;-76
2022/01/17 01:21:58;;;;;;;29.40;16.47;;;;;;;2.79;100.00;101136.03;4983379;28;20265;-76
2022/01/17 01:29:56;;;;;;;32.43;16.23;;;;;;;2.78;100.00;101123.97;4981031;28;20267;-75
2022/01/17 01:32:27;;;;;;;25.63;15.63;;;;;;;2.79;100.00;101105.13;4982369;28;20209;-76
2022/01/17 01:34:58;;;;;;;29.87;15.87;;;;;;;2.82;100.00;101112.91;4980528;28;21024;-75
2022/01/17 01:37:26;;;;;;;26.87;14.83;;;;;;;2.82;100.00;101118.03;4981314;28;20201;-76
2022/01/17 01:39:54;;;;;;;34.10;15.83;;;;;;;2.84;100.00;101112.06;4980972;28;20217;-75
2022/01/17 01:42:22;;;;;;;29.37;15.63;;;;;;;2.86;100.00;101101.78;4979920;28;20206;-76
2022/01/17 01:44:51;;;;;;;32.73;16.50;;;;;;;2.89;100.00;101116.44;4980307;28;20229;-76
2022/01/17 01:47:21;;;;;;;31.80;16.07;;;;;;;2.92;100.00;101086.41;4980724;28;20201;-75
2022/01/17 01:49:48;;;;;;;28.17;16.17;;;;;;;2.92;100.00;101094.16;4982677;28;20216;-75
2022/01/17 01:52:16;;;;;;;27.60;15.53;;;;;;;2.93;100.00;101097.56;4981660;28;20197;-75
2022/01/17 01:54:42;;;;;;;28.07;15.00;;;;;;;2.93;100.00;101090.72;4986842;28;20224;-73
2022/01/17 01:57:08;;;;;;;29.07;16.07;;;;;;;2.96;100.00;101110.50;4983643;28;20797;-76
2022/01/17 01:59:37;;;;;;;31.20;16.43;;;;;;;3.00;100.00;101087.34;4986731;28;20213;-75
2022/01/17 02:02:04;;;;;;;24.57;13.70;;;;;;;2.99;100.00;101080.50;4985036;28;20218;-74
2022/01/17 02:04:31;;;;;;;26.90;15.27;;;;;;;3.05;100.00;101090.00;4986778;28;20454;-74
2022/01/17 02:06:57;;;;;;;28.27;13.70;;;;;;;3.03;100.00;101089.97;4985121;28;20248;-74
2022/01/17 02:09:25;;;;;;;28.20;13.73;;;;;;;3.01;100.00;101095.97;4984005;28;20209;-76
2022/01/17 02:11:52;;;;;;;23.10;12.40;;;;;;;3.01;100.00;101078.78;4984526;28;20202;-75
2022/01/17 02:14:19;;;;;;;22.93;12.17;;;;;;;3.01;100.00;101077.94;4983648;28;20699;-74
2022/01/17 02:16:49;;;;;;;22.60;12.30;;;;;;;3.05;100.00;101078.84;4985945;28;20210;-75
2022/01/17 02:19:18;;;;;;;19.30;12.07;;;;;;;3.04;100.00;101065.06;4982759;28;20911;-76
2022/01/17 02:21:48;;;;;;;21.83;11.70;;;;;;;3.10;100.00;101056.56;4985795;28;21018;-76
2022/01/17 02:24:16;;;;;;;20.97;11.87;;;;;;;3.09;100.00;101054.84;4984880;28;20217;-75
2022/01/17 02:26:43;;;;;;;22.73;12.27;;;;;;;3.07;100.00;101047.06;4977927;28;20575;-76
2022/01/17 02:29:10;;;;;;;20.57;12.20;;;;;;;3.11;100.00;101055.72;4983771;28;20237;-75
2022/01/17 02:31:37;;;;;;;18.77;11.07;;;;;;;3.13;100.00;101051.44;4984976;28;20207;-76
2022/01/17 02:34:03;;;;;;;20.03;12.00;;;;;;;3.13;100.00;101043.69;4985007;28;20229;-76
2022/01/17 02:36:30;;;;;;;21.17;11.37;;;;;;;3.12;100.00;101037.69;4985113;28;20503;-74
2022/01/17 02:38:58;;;;;;;18.97;11.23;;;;;;;3.13;100.00;101028.25;4984700;28;20213;-74
2022/01/17 02:41:28;;;;;;;18.97;10.90;;;;;;;3.13;100.00;101026.56;4985489;28;20300;-74
2022/01/17 02:43:56;;;;;;;21.80;11.07;;;;;;;3.14;100.00;101005.06;4985061;28;20224;-74
2022/01/17 02:46:25;;;;;;;17.37;11.37;;;;;;;3.18;100.00;101011.13;4982149;28;20288;-74
2022/01/17 02:48:53;;;;;;;19.10;11.47;;;;;;;3.21;100.00;101011.16;4984157;28;20201;-76
2022/01/17 02:51:19;;;;;;;16.37;10.40;;;;;;;3.22;100.00;101013.75;4983765;28;20205;-75
2022/01/17 02:53:45;;;;;;;19.73;10.93;;;;;;;3.22;100.00;101011.19;4986521;28;20231;-74
2022/01/17 02:56:13;;;;;;;21.90;11.50;;;;;;;3.22;100.00;101003.44;4985760;28;20761;-76
2022/01/17 02:58:40;;;;;;;18.80;10.83;;;;;;;3.23;100.00;101012.88;4950226;28;1020459;-75
2022/01/17 03:01:09;;;;;;;17.63;9.93;;;;;;;3.27;100.00;100997.47;4984405;28;20850;-75
2022/01/17 03:03:36;;;;;;;16.37;9.73;;;;;;;3.29;100.00;100995.75;4985188;28;20221;-74
2022/01/17 03:06:04;;;;;;;15.97;9.27;;;;;;;3.32;100.00;101009.53;4983857;28;20249;-75
2022/01/17 03:08:33;;;;;;;16.63;10.27;;;;;;;3.33;100.00;100987.22;4985474;28;20213;-75
2022/01/17 03:11:02;;;;;;;15.03;9.27;;;;;;;3.33;100.00;100992.38;4985035;28;20212;-75
2022/01/17 03:13:32;;;;;;;13.83;9.40;;;;;;;3.37;100.00;100981.25;4984865;28;20337;-75
2022/01/17 03:16:01;;;;;;;16.77;8.67;;;;;;;3.35;100.00;100988.97;4985315;28;20193;-75
2022/01/17 03:18:30;;;;;;;19.43;9.13;;;;;;;3.38;100.00;100978.69;4985253;28;20687;-76
2022/01/17 03:20:57;;;;;;;16.83;8.93;;;;;;;3.38;100.00;100986.41;4985153;28;20284;-76
2022/01/17 03:23:24;;;;;;;18.03;9.33;;;;;;;3.44;100.00;100971.84;4984901;28;20595;-75
2022/01/17 03:25:51;;;;;;;15.07;8.87;;;;;;;3.44;100.00;100977.00;4986322;28;20225;-76
2022/01/17 03:28:18;;;;;;;14.83;9.13;;;;;;;3.44;100.00;100964.13;4981655;28;20737;-74
2022/01/17 03:30:46;;;;;;;19.93;9.43;;;;;;;3.47;100.00;100977.91;4985928;28;20205;-74
2022/01/17 03:33:15;;;;;;;16.07;9.33;;;;;;;3.54;100.00;100945.31;4984971;28;20259;-75
2022/01/17 03:35:41;;;;;;;15.97;9.10;;;;;;;3.56;100.00;100946.16;4986672;28;20207;-74
2022/01/17 03:38:10;;;;;;;17.53;8.80;;;;;;;3.54;100.00;100956.47;4983248;28;20248;-74
2022/01/17 03:40:38;;;;;;;15.17;8.80;;;;;;;3.55;100.00;100960.78;4982312;28;20208;-75
2022/01/17 03:43:05;;;;;;;12.20;8.17;;;;;;;3.62;100.00;100973.72;4984969;28;20718;-75
2022/01/17 03:45:32;;;;;;;13.00;8.73;;;;;;;3.63;100.00;100967.72;4984085;28;20284;-76
2022/01/17 03:48:01;;;;;;;11.20;7.70;;;;;;;3.60;100.00;100959.09;4985712;28;20217;-75
2022/01/17 03:50:28;;;;;;;14.37;8.80;;;;;;;3.66;100.00;100980.63;4964384;28;20204;-76
2022/01/17 03:52:56;;;;;;;14.40;7.87;;;;;;;3.65;100.00;100969.44;4986181;28;20226;-76
2022/01/17 03:55:24;;;;;;;12.63;7.83;;;;;;;3.63;100.00;100959.97;4981992;28;20202;-76
2022/01/17 03:57:50;;;;;;;14.80;7.73;;;;;;;3.60;100.00;100969.41;4985508;28;20202;-76
2022/01/17 04:00:19;;;;;;;13.73;8.03;;;;;;;3.62;100.00;100972.00;4981047;28;20217;-76
2022/01/17 04:02:46;;;;;;;12.43;7.20;;;;;;;3.64;100.00;100975.47;4984896;28;20213;-76
2022/01/17 04:05:14;;;;;;;14.07;7.57;;;;;;;3.62;100.00;100965.97;4982402;28;20845;-76
2022/01/17 04:07:41;;;;;;;16.80;8.70;;;;;;;3.66;100.00;100960.88;4985163;28;20229;-76
2022/01/17 04:10:08;;;;;;;14.23;8.57;;;;;;;3.65;100.00;100971.16;4985116;28;20698;-76
2022/01/17 04:12:34;;;;;;;10.60;7.67;;;;;;;3.62;100.00;100990.03;4984721;28;20201;-75
2022/01/17 04:15:00;;;;;;;16.20;8.93;;;;;;;3.61;100.00;100993.50;4983176;28;20214;-76
2022/01/17 04:17:29;;;;;;;13.27;7.80;;;;;;;3.62;100.00;100986.59;4981964;28;20201;-76
2022/01/17 04:20:02;;;;;;;14.20;8.23;;;;;;;3.63;100.00;100986.63;4984151;28;20210;-76
2022/01/17 04:22:33;;;;;;;12.33;6.73;;;;;;;3.63;100.00;100976.31;4982329;28;20234;-76
2022/01/17 04:25:00;;;;;;;9.60;7.20;;;;;;;3.63;100.00;100963.41;4985888;28;20208;-76
2022/01/17 04:27:26;;;;;;;10.20;6.83;;;;;;;3.68;100.00;100971.19;4979658;28;20260;-75
2022/01/17 04:29:52;;;;;;;12.57;6.77;;;;;;;3.71;100.00;100958.31;4983817;28;20213;-75
2022/01/17 04:32:19;;;;;;;11.97;6.77;;;;;;;3.70;100.00;100957.44;4982698;28;20205;-75
2022/01/17 04:34:45;;;;;;;10.70;6.00;;;;;;;3.71;100.00;100966.03;4984076;28;20236;-76
2022/01/17 04:37:12;;;;;;;10.90;6.30;;;;;;;3.73;100.00;100974.66;4981212;28;20932;-76
2022/01/17 04:39:40;;;;;;;11.00;6.03;;;;;;;3.74;100.00;100954.03;4982462;28;20201;-76
2022/01/17 04:42:12;;;;;;;7.30;5.00;;;;;;;3.78;100.00;100965.22;4982811;28;20209;-76
2022/01/17 04:47:23;;;;;;;7.03;3.47;;;;;;;3.90;100.00;100959.31;4982198;28;20217;-76
2022/01/17 04:49:50;;;;;;;9.20;3.03;;;;;;;3.90;100.00;100961.88;4980155;28;20212;-76
2022/01/17 04:52:16;;;;;;;6.50;2.83;;;;;;;3.92;100.00;100973.06;4983233;28;20216;-75
2022/01/17 04:54:51;;;;;;;5.13;2.23;;;;;;;3.99;100.00;100985.16;4978088;28;20233;-76
2022/01/17 04:57:18;;;;;;;6.03;2.03;;;;;;;3.96;100.00;100977.41;4985532;28;20201;-76
2022/01/17 04:59:45;;;;;;;2.27;1.70;;;;;;;3.93;100.00;100992.88;4982720;28;20670;-74
2022/01/17 05:02:11;;;;;;;4.90;1.50;;;;;;;3.98;100.00;100997.19;4982197;28;20234;-76
2022/01/17 05:04:38;;;;;;;4.30;1.60;;;;;;;3.98;100.00;100993.78;4980916;28;20316;-74
2022/01/17 05:07:05;;;;;;;3.60;1.63;;;;;;;4.01;100.00;100980.91;4983034;28;20240;-76
2022/01/17 05:09:32;;;;;;;4.63;1.43;;;;;;;4.09;100.00;101017.06;4979667;28;20212;-76
2022/01/17 05:12:00;;;;;;;7.03;1.53;;;;;;;4.07;100.00;101001.56;4979218;28;20201;-76
2022/01/17 05:14:27;;;;;;;3.23;1.30;;;;;;;4.09;100.00;100988.66;4981457;28;20640;-76
2022/01/17 05:17:01;;;;;;;4.40;1.20;;;;;;;4.07;100.00;100998.97;4979359;28;20205;-76
2022/01/17 05:22:11;;;;;;;5.47;2.20;;;;;;;4.04;100.00;100998.94;4982585;28;20950;-76
2022/01/17 05:24:37;;;;;;;4.37;2.23;;;;;;;4.00;100.00;100989.47;4982543;28;20221;-75
2022/01/17 05:27:06;;;;;;;6.80;2.70;;;;;;;3.97;100.00;100987.75;4981518;28;20225;-76
2022/01/17 05:29:32;;;;;;;4.33;2.13;;;;;;;3.91;100.00;100982.53;4983541;28;20209;-75
2022/01/17 05:31:58;;;;;;;3.30;1.90;;;;;;;3.86;100.00;101001.41;4981899;28;20571;-75
2022/01/17 05:34:25;;;;;;;4.57;2.00;;;;;;;3.78;100.00;100976.44;4983931;28;20234;-76
2022/01/17 05:36:51;;;;;;;6.73;1.90;;;;;;;3.68;100.00;100948.00;4981157;28;20214;-75
2022/01/17 05:39:18;;;;;;;7.90;1.97;;;;;;;3.66;100.00;100962.56;4982365;28;20209;-76
2022/01/17 05:41:44;;;;;;;5.27;1.83;;;;;;;3.68;100.00;100966.91;4980354;28;20213;-76
2022/01/17 05:44:12;;;;;;;4.87;1.20;;;;;;;3.66;100.00;100950.56;4983944;28;20602;-76
2022/01/17 05:46:38;;;;;;;6.23;1.43;;;;;;;3.62;100.00;100946.22;4983954;28;20225;-76
2022/01/17 05:49:05;;;;;;;5.63;1.37;;;;;;;3.62;100.00;100953.94;4978179;28;20195;-76
2022/01/17 05:51:31;;;;;;;8.03;1.00;;;;;;;3.63;100.00;100954.81;4982462;28;20204;-73
2022/01/17 05:53:58;;;;;;;4.03;1.30;;;;;;;3.65;100.00;100960.84;4981703;28;20221;-76
2022/01/17 05:56:24;;;;;;;5.07;1.90;;;;;;;3.68;100.00;100922.19;4984066;28;20216;-76
2022/01/17 05:58:51;;;;;;;5.17;1.10;;;;;;;3.72;100.00;100932.53;4979991;28;20217;-76
2022/01/17 06:01:19;;;;;;;4.80;1.53;;;;;;;3.70;100.00;100923.91;4982656;28;20209;-75
2022/01/17 06:03:45;;;;;;;2.43;1.00;;;;;;;3.66;100.00;100922.19;4978154;28;20229;-76
2022/01/17 06:06:12;;;;;;;5.13;1.13;;;;;;;3.66;100.00;100927.34;4982411;28;20215;-76
2022/01/17 06:08:38;;;;;;;2.93;0.90;;;;;;;3.64;100.00;100935.91;4978568;28;20251;-75
2022/01/17 06:11:05;;;;;;;5.67;1.07;;;;;;;3.71;100.00;100914.47;4982401;28;20552;-76
2022/01/17 06:13:31;;;;;;;7.33;1.50;;;;;;;3.68;100.00;100907.59;4981916;28;20231;-76
2022/01/17 06:15:58;;;;;;;5.40;1.03;;;;;;;3.67;100.00;100910.16;4980134;28;20205;-76
2022/01/17 06:18:25;;;;;;;8.20;1.37;;;;;;;3.66;100.00;100911.88;4983301;28;20190;-75
2022/01/17 06:20:52;;;;;;;3.43;1.23;;;;;;;3.69;100.00;100911.00;4982076;28;20198;-76
2022/01/17 06:23:18;;;;;;;4.20;0.97;;;;;;;3.67;100.00;100913.56;4982560;28;20221;-73
2022/01/17 06:25:45;;;;;;;7.53;1.30;;;;;;;3.66;100.00;100934.19;4982618;28;20701;-76
2022/01/17 06:28:11;;;;;;;4.63;1.07;;;;;;;3.67;100.00;100948.81;4982742;28;20229;-74
2022/01/17 06:30:38;;;;;;;6.17;0.90;;;;;;;3.67;100.00;100951.41;4981188;28;20205;-76
2022/01/17 06:33:04;;;;;;;5.93;0.93;;;;;;;3.71;100.00;100943.72;4982812;28;20228;-76
2022/01/17 06:35:32;;;;;;;6.23;1.40;;;;;;;3.70;100.00;100962.59;4979745;28;20216;-76
2022/01/17 06:37:58;;;;;;;4.07;1.50;;;;;;;3.73;100.00;100949.75;4979435;28;20198;-76
2022/01/17 06:40:25;;;;;;;5.87;1.17;;;;;;;3.72;100.00;100940.25;4982350;28;20212;-75
2022/01/17 06:42:51;;;;;;;5.80;1.23;;;;;;;3.70;100.00;100926.50;4984899;28;20221;-73
2022/01/17 06:45:18;;;;;;;4.43;1.17;;;;;;;3.69;100.00;100898.97;4986753;28;20216;-75
2022/01/17 06:47:45;;;;;;;1.33;1.10;;;;;;;3.70;100.00;100890.41;4983649;28;20269;-75
2022/01/17 06:50:12;;;;;;;5.17;1.37;;;;;;;3.69;100.00;100883.50;4985006;28;20214;-75
2022/01/17 06:52:40;;;;;;;1.80;1.00;;;;;;;3.67;100.00;100892.94;4983643;28;20682;-75
2022/01/17 06:55:08;;;;;;;4.30;1.57;;;;;;;3.67;100.00;100895.53;4987263;28;20214;-76
2022/01/17 06:57:35;;;;;;;7.27;1.60;;;;;;;3.70;100.00;100918.75;4982049;28;20293;-76
2022/01/17 07:00:04;;;;;;;4.07;1.00;;;;;;;3.67;100.00;100899.84;4984322;28;20217;-76
2022/01/17 07:02:30;;;;;;;3.37;1.47;;;;;;;3.58;100.00;100939.31;4984567;28;20209;-76
2022/01/17 07:04:56;;;;;;;10.00;1.60;;;;;;;3.47;100.00;100949.53;4985454;28;20205;-76
2022/01/17 07:07:23;;;;;;;4.20;1.00;;;;;;;3.42;100.00;100954.66;4984875;28;20221;-76
2022/01/17 07:09:50;;;;;;;4.97;1.73;;;;;;;3.45;100.00;100953.81;4984488;28;20202;-76
2022/01/17 07:12:17;;;;;;;6.60;1.50;;;;;;;3.43;100.00;100945.22;4986333;28;20674;-76
2022/01/17 07:14:43;;;;;;;6.83;1.70;;;;;;;3.41;100.00;100968.41;4980415;28;20230;-74
2022/01/17 07:17:09;;;;;;;7.10;1.70;;;;;;;3.39;100.00;100976.97;4985425;28;20193;-76
2022/01/17 07:19:36;;;;;;;7.37;1.70;;;;;;;3.39;100.00;100967.53;4982539;28;20200;-76
2022/01/17 07:22:03;;;;;;;6.07;1.70;;;;;;;3.39;100.00;100969.22;4984039;28;20205;-76
2022/01/17 07:24:30;;;;;;;4.70;1.57;;;;;;;3.35;100.00;100942.56;4982354;28;20233;-76
2022/01/17 07:26:58;;;;;;;5.40;1.53;;;;;;;3.32;100.00;100936.50;4985683;28;20206;-76
2022/01/17 07:29:26;;;;;;;3.87;1.43;;;;;;;3.30;100.00;100913.31;4982632;28;20209;-76
2022/01/17 07:31:53;;;;;;;7.10;1.57;;;;;;;3.26;100.00;100885.78;4983893;28;20201;-76
2022/01/17 07:34:19;;;;;;;4.50;1.83;;;;;;;3.21;100.00;100887.47;4984173;28;20243;-75
2022/01/17 07:36:46;;;;;;;6.00;2.30;;;;;;;3.20;100.00;100896.03;4982546;28;20231;-76
2022/01/17 07:39:12;;;;;;;5.50;1.47;;;;;;;3.23;100.00;100890.91;4985594;28;20205;-76
2022/01/17 07:41:39;;;;;;;5.13;1.40;;;;;;;3.23;100.00;100891.75;4982774;28;20425;-76
2022/01/17 07:44:18;;;;;;;7.80;1.87;;;;;;;3.24;100.00;100879.75;4985005;28;20228;-74
2022/01/17 07:46:50;;;;;;;4.27;1.60;;;;;;;3.25;100.00;100873.75;4980627;28;20201;-76
2022/01/17 07:49:19;;;;;;;2.67;1.60;;;;;;;3.25;100.00;100883.19;4983485;28;20412;-75
2022/01/17 07:51:48;;;;;;;4.30;2.03;;;;;;;3.22;100.00;100876.31;4981551;28;20255;-76
2022/01/17 07:54:16;;;;;;;5.00;1.80;;;;;;;3.25;100.00;100867.72;4980576;28;20229;-74
2022/01/17 07:56:43;;;;;;;5.33;1.70;;;;;;;3.26;100.00;100888.38;4982876;28;21091;-76
2022/01/17 07:59:12;;;;;;;7.00;1.83;;;;;;;3.26;100.00;100879.78;4985352;28;20267;-76
2022/01/17 08:01:39;;;;;;;2.20;1.40;;;;;;;3.26;100.00;100882.34;4983485;28;20193;-75
2022/01/17 08:04:06;;;;;;;3.17;1.57;;;;;;;3.26;100.00;100874.63;4984037;28;20841;-76
2022/01/17 08:06:36;;;;;;;4.70;2.13;;;;;;;3.27;100.00;100866.03;4986210;28;20205;-76
2022/01/17 08:09:04;;;;;;;4.23;2.00;;;;;;;3.29;100.00;100872.94;4982860;28;20726;-76
2022/01/17 08:11:30;;;;;;;4.43;2.00;;;;;;;3.31;100.00;100868.66;4986367;28;20201;-76
2022/01/17 08:13:57;;;;;;;3.60;1.90;;;;;;;3.35;100.00;100856.66;4981261;28;20732;-76
2022/01/17 08:16:25;;;;;;;7.43;1.70;;;;;;;3.38;100.00;100844.66;4986481;28;20267;-75
2022/01/17 08:18:52;;;;;;;5.80;1.87;;;;;;;3.41;100.00;100824.06;4980234;28;20209;-75
2022/01/17 08:21:18;;;;;;;3.73;1.97;;;;;;;3.44;100.00;100830.94;4985973;28;20210;-76
2022/01/17 08:23:45;;;;;;;4.77;1.60;;;;;;;3.48;100.00;100836.97;4980491;28;20229;-74
2022/01/17 08:26:12;;;;;;;5.37;1.50;;;;;;;3.51;100.00;100829.25;4980699;28;20212;-76
2022/01/17 08:28:40;;;;;;;3.60;1.50;;;;;;;3.52;100.00;100847.31;4978424;28;20219;-74
2022/01/17 08:31:07;;;;;;;5.13;1.70;;;;;;;3.56;100.00;100807.78;4981908;28;20209;-75
2022/01/17 08:33:35;;;;;;;7.20;1.50;;;;;;;3.59;100.00;100799.22;4980523;28;20229;-73
2022/01/17 08:36:01;;;;;;;4.23;2.40;;;;;;;3.59;100.00;100797.50;4983785;28;20201;-76
2022/01/17 08:38:29;;;;;;;7.37;1.70;;;;;;;3.60;100.00;100808.69;4983574;28;20655;-76
2022/01/17 08:40:55;;;;;;;5.13;1.80;;;;;;;3.63;100.00;100800.97;4966149;28;20575;-74
2022/01/17 08:43:22;;;;;;;4.30;1.57;;;;;;;3.62;100.00;100799.22;4984924;28;20232;-76
2022/01/17 08:45:49;;;;;;;4.87;1.50;;;;;;;3.64;100.00;100794.06;4982307;28;20209;-76
2022/01/17 08:48:15;;;;;;;6.50;1.73;;;;;;;3.65;100.00;100801.81;4985426;28;20221;-76
2022/01/17 08:50:46;;;;;;;5.97;1.80;;;;;;;3.67;100.00;100804.41;4982698;28;20216;-75
2022/01/17 08:53:13;;;;;;;3.83;1.70;;;;;;;3.66;100.00;100777.78;4984851;28;20222;-76
2022/01/17 08:55:40;;;;;;;2.87;1.67;;;;;;;3.69;100.00;100756.28;4980718;28;20202;-75
2022/01/17 08:58:07;;;;;;;4.63;1.60;;;;;;;3.73;100.00;100765.75;4984847;28;20216;-75
2022/01/17 09:00:34;;;;;;;7.87;1.70;;;;;;;3.78;100.00;100759.78;4981432;28;20286;-74
2022/01/17 09:03:01;;;;;;;4.13;1.97;;;;;;;3.81;100.00;100738.28;4984021;28;20229;-74
2022/01/17 09:05:28;;;;;;;6.17;1.47;;;;;;;3.88;100.00;100752.06;4985788;28;20214;-76
2022/01/17 09:07:56;;;;;;;6.07;1.90;;;;;;;3.95;100.00;100764.13;4982520;28;20312;-75
2022/01/17 09:10:22;;;;;;;4.83;1.97;;;;;;;3.97;100.00;100780.47;4987219;28;20226;-76
2022/01/17 09:12:49;;;;;;;4.77;1.70;;;;;;;3.97;100.00;100789.09;4980644;28;20209;-75
2022/01/17 09:15:16;;;;;;;9.63;2.20;;;;;;;4.00;100.00;100782.22;4982797;28;20239;-75
2022/01/17 09:17:42;;;;;;;6.37;2.00;;;;;;;4.08;100.00;100785.66;4968630;28;20853;-75
2022/01/17 09:20:10;;;;;;;6.47;1.90;;;;;;;4.13;100.00;100776.22;4986704;28;20281;-76
2022/01/17 09:22:36;;;;;;;6.57;1.90;;;;;;;4.24;100.00;100738.41;4982114;28;20277;-76
2022/01/17 09:25:06;;;;;;;5.23;1.80;;;;;;;4.27;100.00;100755.59;4986572;28;20212;-76
2022/01/17 09:27:32;;;;;;;4.17;1.80;;;;;;;4.28;100.00;100772.81;4984613;28;20284;-76
2022/01/17 09:29:59;;;;;;;6.97;1.83;;;;;;;4.33;100.00;100764.22;4985371;28;20209;-74
2022/01/17 09:32:26;;;;;;;4.37;1.83;;;;;;;4.39;100.00;100780.59;4979831;28;20899;-75
2022/01/17 09:34:52;;;;;;;4.40;1.60;;;;;;;4.41;100.00;100784.88;4982149;28;20216;-75
2022/01/17 09:37:18;;;;;;;7.83;1.57;;;;;;;4.47;100.00;100771.13;4983149;28;20213;-76
2022/01/17 09:39:45;;;;;;;1.97;1.37;;;;;;;4.51;100.00;100772.84;4981717;28;21688;-76
2022/01/17 09:42:12;;;;;;;6.20;2.03;;;;;;;4.56;100.00;100807.28;4967782;28;20220;-76
2022/01/17 09:44:39;;;;;;;3.40;1.40;;;;;;;4.67;100.00;100796.97;4963771;28;20240;-74
2022/01/17 09:47:07;;;;;;;4.13;1.20;;;;;;;4.71;100.00;100788.34;4982298;28;20209;-75
2022/01/17 09:49:38;;;;;;;9.13;4.30;;;;;;;4.74;100.00;100783.19;4981782;28;20221;-74
2022/01/17 09:52:34;;;;;;;2.13;1.10;;;;;;;4.68;100.00;100789.22;4983625;28;20240;-76
2022/01/17 09:55:04;;;;;;;3.27;1.37;;;;;;;4.64;100.00;100761.66;4980775;28;20197;-75
2022/01/17 09:57:35;;;;;;;4.97;1.47;;;;;;;4.62;100.00;100789.22;4982770;28;20812;-76
2022/01/17 10:00:01;;;;;;;4.73;1.90;;;;;;;4.52;100.00;100775.44;4981592;28;20218;-74
2022/01/17 10:02:28;;;;;;;4.60;1.47;;;;;;;4.45;100.00;100778.88;4980158;28;20674;-76
2022/01/17 10:04:54;;;;;;;4.90;1.83;;;;;;;4.48;100.00;100759.94;4977912;28;20710;-76
2022/01/17 10:07:20;;;;;;;2.53;1.40;;;;;;;4.49;100.00;100770.25;4982510;28;20201;-75
2022/01/17 10:09:55;;;;;;;5.77;1.73;;;;;;;4.47;100.00;100802.13;4981085;28;21018;-76
2022/01/17 10:12:21;;;;;;;3.23;1.50;;;;;;;4.41;100.00;100787.47;4983279;28;20205;-76
2022/01/17 10:14:58;;;;;;;3.23;1.57;;;;;;;4.38;100.00;100791.75;4984385;28;20232;-76
2022/01/17 10:17:42;;;;;;;5.33;1.70;;;;;;;4.36;100.00;100764.22;4985958;28;20240;-76
2022/01/17 10:20:10;;;;;;;4.60;1.53;;;;;;;4.30;100.00;100761.63;4985136;28;20231;-76
2022/01/17 10:22:46;;;;;;;5.07;1.77;;;;;;;4.29;100.00;100770.25;4984513;28;20212;-76
2022/01/17 10:25:20;;;;;;;3.20;1.73;;;;;;;4.30;100.00;100746.13;4985163;28;20420;-74
2022/01/17 10:28:10;;;;;;;3.23;1.70;;;;;;;4.27;100.00;100773.66;4983322;28;20225;-76
2022/01/17 10:30:51;;;;;;;2.67;1.50;;;;;;;4.28;100.00;100749.59;4982750;28;20197;-76
2022/01/17 10:36:13;;;;;;;4.93;1.80;;;;;;;4.30;100.00;100768.53;4947875;28;20221;-75
2022/01/17 10:38:39;;;;;;;3.47;2.13;;;;;;;4.29;100.00;100778.00;4974529;28;20827;-75
2022/01/17 10:41:07;;;;;;;7.40;2.50;;;;;;;4.27;100.00;100777.09;4988248;28;20667;-74
2022/01/17 10:43:35;;;;;;;4.80;1.90;;;;;;;4.26;100.00;100798.63;4982461;28;20229;-75
2022/01/17 10:46:05;;;;;;;5.00;2.23;;;;;;;4.28;100.00;100794.31;4987107;28;20247;-76
2022/01/17 10:48:35;;;;;;;2.93;1.87;;;;;;;4.30;100.00;100805.50;4984382;28;20209;-76
2022/01/17 10:51:02;;;;;;;2.90;2.00;;;;;;;4.33;100.00;100810.69;4985515;28;20207;-75
2022/01/17 10:53:29;;;;;;;3.77;2.13;;;;;;;4.30;100.00;100810.66;4983297;28;20224;-75
2022/01/17 10:55:58;;;;;;;5.93;2.50;;;;;;;4.30;100.00;100831.31;4986151;28;20227;-75
2022/01/17 10:58:26;;;;;;;3.37;2.30;;;;;;;4.26;100.00;100845.09;4978662;28;20210;-76
2022/01/17 11:00:54;;;;;;;2.60;1.40;;;;;;;4.18;100.00;100888.91;4982665;28;20216;-75
2022/01/17 11:03:27;;;;;;;8.90;2.10;;;;;;;4.07;100.00;100980.06;4985638;28;20750;-75
2022/01/17 11:05:55;;;;;;;2.20;0.80;;;;;;;2.18;100.00;100976.44;4986121;28;20194;-76
2022/01/17 11:08:25;;;;;;;1.90;0.70;;;;;;;2.04;100.00;100982.28;4988486;28;20226;-76
2022/01/17 11:10:55;;;;;;;1.93;0.60;;;;;;;1.98;100.00;101015.59;4984721;28;20206;-76
2022/01/17 11:13:24;;;;;;;1.90;0.70;;;;;;;1.91;100.00;101010.34;4988793;28;20221;-76
2022/01/17 11:15:54;;;;;;;1.70;0.83;;;;;;;1.87;100.00;101032.59;4988625;28;20193;-76
2022/01/17 11:18:26;;;;;;;2.87;0.50;;;;;;;1.81;100.00;101040.19;4989053;28;20304;-76
2022/01/17 11:20:54;;;;;;;4.47;0.80;;;;;;;1.66;100.00;101048.50;4981609;28;20202;-77
2022/01/17 11:23:21;;;;;;;5.87;0.67;;;;;;;1.60;100.00;101048.41;4988564;28;20221;-76
2022/01/17 11:25:52;;;;;;;5.57;1.07;;;;;;;1.51;100.00;101037.13;4987176;28;20205;-76
2022/01/17 11:28:22;;;;;;;7.37;1.13;;;;;;;1.46;100.00;101037.88;4988020;28;20254;-76
2022/01/17 11:30:50;;;;;;;4.20;0.87;;;;;;;1.44;100.00;101035.31;4984980;28;20209;-76
2022/01/17 11:33:16;;;;;;;6.03;1.20;;;;;;;1.48;100.00;101038.78;4981792;28;20233;-75
2022/01/17 11:35:51;;;;;;;2.40;0.90;;;;;;;1.48;100.00;101044.78;4985794;28;20210;-75
2022/01/17 11:38:21;;;;;;;5.77;1.20;;;;;;;1.57;100.00;101053.50;4984575;28;20766;-75
2022/01/17 11:40:48;;;;;;;7.73;1.40;;;;;;;1.64;100.00;101050.19;4987166;28;20300;-75